sensor_id;sensor_type;location;lat;lon;timestamp;pressure;altitude;pressure_sealevel;temperature;humidity
48846;BME280;34665;51.886;5.436;2023-03-19T00:00:08;100893.34;;;17.11;100.00
48846;BME280;34665;51.886;5.436;2023-03-19T00:02:34;100907.53;;;17.06;100.00
48846;BME280;34665;51.886;5.436;2023-03-19T00:05:00;100907.97;;;17.27;100.00
48846;BME280;34665;51.886;5.436;2023-03-19T00:07:25;100907.72;;;17.41;100.00
48846;BME280;34665;51.886;5.436;2023-03-19T00:09:51;100915.78;;;17.12;100.00
48846;BME280;34665;51.886;5.436;2023-03-19T00:12:16;100911.94;;;17.48;100.00
48846;BME280;34665;51.886;5.436;2023-03-19T00:14:42;100909.78;;;17.22;100.00
48846;BME280;34665;51.886;5.436;2023-03-19T00:17:07;100912.59;;;17.15;100.00
48846;BME280;34665;51.886;5.436;2023-03-19T00:19:32;100914.50;;;17.55;100.00
48846;BME280;34665;51.886;5.436;2023-03-19T00:21:58;100908.41;;;17.48;100.00
48846;BME280;34665;51.886;5.436;2023-03-19T00:24:24;100918.00;;;17.56;100.00
48846;BME280;34665;51.886;5.436;2023-03-19T00:26:49;100909.84;;;17.39;100.00
48846;BME280;34665;51.886;5.436;2023-03-19T00:29:16;100921.50;;;17.27;100.00
48846;BME280;34665;51.886;5.436;2023-03-19T00:31:41;100920.53;;;17.45;100.00
48846;BME280;34665;51.886;5.436;2023-03-19T00:34:07;100913.72;;;17.43;100.00
48846;BME280;34665;51.886;5.436;2023-03-19T00:36:33;100920.66;;;17.39;100.00
48846;BME280;34665;51.886;5.436;2023-03-19T00:38:58;100915.59;;;17.42;100.00
48846;BME280;34665;51.886;5.436;2023-03-19T00:41:24;100917.03;;;17.33;100.00
48846;BME280;34665;51.886;5.436;2023-03-19T00:43:54;100926.25;;;17.49;100.00
48846;BME280;34665;51.886;5.436;2023-03-19T00:46:20;100930.06;;;17.24;100.00
48846;BME280;34665;51.886;5.436;2023-03-19T00:48:47;100931.63;;;17.20;100.00
48846;BME280;34665;51.886;5.436;2023-03-19T00:51:13;100931.41;;;17.22;100.00
48846;BME280;34665;51.886;5.436;2023-03-19T00:53:40;100925.88;;;17.04;100.00
48846;BME280;34665;51.886;5.436;2023-03-19T00:56:06;100920.16;;;17.01;100.00
48846;BME280;34665;51.886;5.436;2023-03-19T00:58:32;100917.50;;;17.30;100.00
48846;BME280;34665;51.886;5.436;2023-03-19T01:00:59;100915.38;;;17.32;100.00
48846;BME280;34665;51.886;5.436;2023-03-19T01:03:24;100921.84;;;17.72;100.00
48846;BME280;34665;51.886;5.436;2023-03-19T01:05:50;100917.66;;;17.52;100.00
48846;BME280;34665;51.886;5.436;2023-03-19T01:08:16;100915.88;;;17.29;100.00
48846;BME280;34665;51.886;5.436;2023-03-19T01:10:43;100916.19;;;17.73;100.00
48846;BME280;34665;51.886;5.436;2023-03-19T01:13:09;100915.53;;;17.66;100.00
48846;BME280;34665;51.886;5.436;2023-03-19T01:15:38;100914.91;;;17.64;100.00
48846;BME280;34665;51.886;5.436;2023-03-19T01:18:05;100918.59;;;17.58;100.00
48846;BME280;34665;51.886;5.436;2023-03-19T01:20:30;100916.53;;;17.77;100.00
48846;BME280;34665;51.886;5.436;2023-03-19T01:22:56;100923.13;;;17.98;100.00
48846;BME280;34665;51.886;5.436;2023-03-19T01:25:22;100924.09;;;18.04;100.00
48846;BME280;34665;51.886;5.436;2023-03-19T01:27:59;100922.72;;;17.60;100.00
48846;BME280;34665;51.886;5.436;2023-03-19T01:30:25;100915.44;;;17.90;100.00
48846;BME280;34665;51.886;5.436;2023-03-19T01:33:10;100921.38;;;17.63;100.00
48846;BME280;34665;51.886;5.436;2023-03-19T01:35:52;100917.06;;;17.91;100.00
48846;BME280;34665;51.886;5.436;2023-03-19T01:38:20;100925.31;;;17.84;100.00
48846;BME280;34665;51.886;5.436;2023-03-19T01:40:46;100925.56;;;17.83;100.00
48846;BME280;34665;51.886;5.436;2023-03-19T01:43:14;100926.91;;;17.68;100.00
48846;BME280;34665;51.886;5.436;2023-03-19T01:46:00;100926.56;;;17.94;100.00
48846;BME280;34665;51.886;5.436;2023-03-19T01:48:52;100924.66;;;17.77;100.00
48846;BME280;34665;51.886;5.436;2023-03-19T01:51:19;100923.78;;;17.88;100.00
48846;BME280;34665;51.886;5.436;2023-03-19T01:54:06;100928.34;;;17.18;100.00
48846;BME280;34665;51.886;5.436;2023-03-19T01:56:41;100925.22;;;17.38;100.00
48846;BME280;34665;51.886;5.436;2023-03-19T01:59:17;100926.78;;;17.22;100.00
48846;BME280;34665;51.886;5.436;2023-03-19T02:04:45;100919.19;;;17.07;100.00
48846;BME280;34665;51.886;5.436;2023-03-19T02:07:12;100920.22;;;17.18;100.00
48846;BME280;34665;51.886;5.436;2023-03-19T02:09:39;100920.81;;;16.96;100.00
48846;BME280;34665;51.886;5.436;2023-03-19T02:12:05;100919.56;;;16.99;100.00
48846;BME280;34665;51.886;5.436;2023-03-19T02:14:31;100922.34;;;16.92;100.00
48846;BME280;34665;51.886;5.436;2023-03-19T02:16:56;100919.06;;;17.14;100.00
48846;BME280;34665;51.886;5.436;2023-03-19T02:19:27;100927.16;;;17.14;100.00
48846;BME280;34665;51.886;5.436;2023-03-19T02:21:55;100919.16;;;17.19;100.00
48846;BME280;34665;51.886;5.436;2023-03-19T02:24:27;100922.84;;;17.13;100.00
48846;BME280;34665;51.886;5.436;2023-03-19T02:27:01;100922.56;;;16.90;100.00
48846;BME280;34665;51.886;5.436;2023-03-19T02:29:27;100929.41;;;17.17;100.00
48846;BME280;34665;51.886;5.436;2023-03-19T02:31:56;100924.13;;;17.10;100.00
48846;BME280;34665;51.886;5.436;2023-03-19T02:36:48;100914.81;;;17.30;100.00
48846;BME280;34665;51.886;5.436;2023-03-19T02:39:19;100916.66;;;17.29;100.00
48846;BME280;34665;51.886;5.436;2023-03-19T02:41:47;100931.25;;;17.16;100.00
48846;BME280;34665;51.886;5.436;2023-03-19T02:44:13;100936.31;;;17.25;100.00
48846;BME280;34665;51.886;5.436;2023-03-19T02:46:38;100927.25;;;17.31;100.00
48846;BME280;34665;51.886;5.436;2023-03-19T02:49:03;100926.66;;;17.29;100.00
48846;BME280;34665;51.886;5.436;2023-03-19T02:51:29;100935.84;;;16.92;100.00
48846;BME280;34665;51.886;5.436;2023-03-19T02:53:54;100934.69;;;16.88;100.00
48846;BME280;34665;51.886;5.436;2023-03-19T02:56:20;100927.97;;;16.78;100.00
48846;BME280;34665;51.886;5.436;2023-03-19T02:58:45;100933.63;;;17.13;100.00
48846;BME280;34665;51.886;5.436;2023-03-19T03:01:11;100922.44;;;17.21;100.00
48846;BME280;34665;51.886;5.436;2023-03-19T03:03:37;100932.88;;;17.29;100.00
48846;BME280;34665;51.886;5.436;2023-03-19T03:06:03;100940.66;;;17.26;100.00
48846;BME280;34665;51.886;5.436;2023-03-19T03:08:28;100942.31;;;17.15;100.00
48846;BME280;34665;51.886;5.436;2023-03-19T03:10:54;100937.25;;;17.30;100.00
48846;BME280;34665;51.886;5.436;2023-03-19T03:13:19;100938.91;;;17.31;100.00
48846;BME280;34665;51.886;5.436;2023-03-19T03:15:45;100931.84;;;17.06;100.00
48846;BME280;34665;51.886;5.436;2023-03-19T03:18:11;100939.28;;;16.99;100.00
48846;BME280;34665;51.886;5.436;2023-03-19T03:20:37;100937.97;;;17.14;100.00
48846;BME280;34665;51.886;5.436;2023-03-19T03:23:03;100946.28;;;17.24;100.00
48846;BME280;34665;51.886;5.436;2023-03-19T03:25:28;100941.28;;;17.04;100.00
48846;BME280;34665;51.886;5.436;2023-03-19T03:27:55;100939.72;;;16.96;100.00
48846;BME280;34665;51.886;5.436;2023-03-19T03:30:21;100944.34;;;17.08;100.00
48846;BME280;34665;51.886;5.436;2023-03-19T03:32:47;100933.59;;;17.37;100.00
48846;BME280;34665;51.886;5.436;2023-03-19T03:35:12;100945.69;;;17.34;100.00
48846;BME280;34665;51.886;5.436;2023-03-19T03:37:40;100933.00;;;17.34;100.00
48846;BME280;34665;51.886;5.436;2023-03-19T03:40:05;100938.91;;;17.19;100.00
48846;BME280;34665;51.886;5.436;2023-03-19T03:42:33;100949.09;;;17.29;100.00
48846;BME280;34665;51.886;5.436;2023-03-19T03:45:00;100940.84;;;17.48;100.00
48846;BME280;34665;51.886;5.436;2023-03-19T03:47:25;100942.28;;;17.39;100.00
48846;BME280;34665;51.886;5.436;2023-03-19T03:49:51;100945.09;;;17.44;100.00
48846;BME280;34665;51.886;5.436;2023-03-19T03:52:16;100949.28;;;17.11;100.00
48846;BME280;34665;51.886;5.436;2023-03-19T03:54:42;100955.22;;;17.37;100.00
48846;BME280;34665;51.886;5.436;2023-03-19T03:57:07;100951.53;;;17.55;100.00
48846;BME280;34665;51.886;5.436;2023-03-19T03:59:33;100951.50;;;17.14;100.00
48846;BME280;34665;51.886;5.436;2023-03-19T04:01:58;100945.09;;;17.44;100.00
48846;BME280;34665;51.886;5.436;2023-03-19T04:04:24;100948.09;;;17.59;100.00
48846;BME280;34665;51.886;5.436;2023-03-19T04:06:49;100947.31;;;17.47;100.00
48846;BME280;34665;51.886;5.436;2023-03-19T04:09:24;100942.19;;;17.33;100.00
48846;BME280;34665;51.886;5.436;2023-03-19T04:11:50;100943.97;;;17.16;100.00
48846;BME280;34665;51.886;5.436;2023-03-19T04:14:16;100948.78;;;17.67;100.00
48846;BME280;34665;51.886;5.436;2023-03-19T04:16:43;100952.78;;;17.11;100.00
48846;BME280;34665;51.886;5.436;2023-03-19T04:19:09;100949.25;;;17.23;100.00
48846;BME280;34665;51.886;5.436;2023-03-19T04:21:35;100950.31;;;17.22;100.00
48846;BME280;34665;51.886;5.436;2023-03-19T04:24:01;100952.22;;;17.50;100.00
48846;BME280;34665;51.886;5.436;2023-03-19T04:26:26;100959.47;;;17.32;100.00
48846;BME280;34665;51.886;5.436;2023-03-19T04:28:51;100953.13;;;17.68;100.00
48846;BME280;34665;51.886;5.436;2023-03-19T04:31:17;100955.94;;;17.73;100.00
48846;BME280;34665;51.886;5.436;2023-03-19T04:33:43;100960.16;;;17.28;100.00
48846;BME280;34665;51.886;5.436;2023-03-19T04:36:08;100960.84;;;16.63;100.00
48846;BME280;34665;51.886;5.436;2023-03-19T04:38:35;100957.22;;;16.82;100.00
48846;BME280;34665;51.886;5.436;2023-03-19T04:41:01;100962.16;;;16.73;100.00
48846;BME280;34665;51.886;5.436;2023-03-19T04:43:26;100958.97;;;16.64;100.00
48846;BME280;34665;51.886;5.436;2023-03-19T04:45:52;100961.22;;;16.79;100.00
48846;BME280;34665;51.886;5.436;2023-03-19T04:48:20;100961.94;;;17.22;100.00
48846;BME280;34665;51.886;5.436;2023-03-19T04:50:49;100962.00;;;16.68;100.00
48846;BME280;34665;51.886;5.436;2023-03-19T04:53:17;100960.97;;;16.92;100.00
48846;BME280;34665;51.886;5.436;2023-03-19T04:55:44;100962.25;;;16.66;100.00
48846;BME280;34665;51.886;5.436;2023-03-19T04:58:15;100957.56;;;16.61;100.00
48846;BME280;34665;51.886;5.436;2023-03-19T05:00:43;100961.81;;;16.81;100.00
48846;BME280;34665;51.886;5.436;2023-03-19T05:03:13;100970.47;;;16.71;100.00
48846;BME280;34665;51.886;5.436;2023-03-19T05:05:38;100965.63;;;16.49;100.00
48846;BME280;34665;51.886;5.436;2023-03-19T05:08:06;100972.47;;;16.64;100.00
48846;BME280;34665;51.886;5.436;2023-03-19T05:10:33;100976.94;;;16.58;100.00
48846;BME280;34665;51.886;5.436;2023-03-19T05:12:58;100980.94;;;16.80;100.00
48846;BME280;34665;51.886;5.436;2023-03-19T05:15:24;100975.75;;;16.54;100.00
48846;BME280;34665;51.886;5.436;2023-03-19T05:17:58;100980.78;;;16.51;100.00
48846;BME280;34665;51.886;5.436;2023-03-19T05:20:43;100985.66;;;16.30;100.00
48846;BME280;34665;51.886;5.436;2023-03-19T05:23:16;100988.28;;;16.48;100.00
48846;BME280;34665;51.886;5.436;2023-03-19T05:25:48;100989.94;;;16.49;100.00
48846;BME280;34665;51.886;5.436;2023-03-19T05:28:20;100989.75;;;16.63;100.00
48846;BME280;34665;51.886;5.436;2023-03-19T05:30:45;100988.22;;;16.67;100.00
48846;BME280;34665;51.886;5.436;2023-03-19T05:33:24;100996.59;;;16.47;100.00
48846;BME280;34665;51.886;5.436;2023-03-19T05:35:51;100997.09;;;16.13;100.00
48846;BME280;34665;51.886;5.436;2023-03-19T05:38:24;101002.56;;;16.37;100.00
48846;BME280;34665;51.886;5.436;2023-03-19T05:40:55;101015.44;;;16.66;100.00
48846;BME280;34665;51.886;5.436;2023-03-19T05:43:28;101010.34;;;16.45;100.00
48846;BME280;34665;51.886;5.436;2023-03-19T05:45:54;101015.31;;;16.60;100.00
48846;BME280;34665;51.886;5.436;2023-03-19T05:48:26;101013.56;;;16.66;100.00
48846;BME280;34665;51.886;5.436;2023-03-19T05:50:52;101007.75;;;16.39;100.00
48846;BME280;34665;51.886;5.436;2023-03-19T05:53:19;101012.56;;;16.37;100.00
48846;BME280;34665;51.886;5.436;2023-03-19T05:56:15;101019.97;;;16.41;100.00
48846;BME280;34665;51.886;5.436;2023-03-19T05:59:01;101026.47;;;16.22;100.00
48846;BME280;34665;51.886;5.436;2023-03-19T06:01:34;101026.56;;;16.15;100.00
48846;BME280;34665;51.886;5.436;2023-03-19T06:04:00;101026.13;;;16.30;100.00
48846;BME280;34665;51.886;5.436;2023-03-19T06:06:25;101026.47;;;16.22;100.00
48846;BME280;34665;51.886;5.436;2023-03-19T06:08:51;101032.47;;;16.66;100.00
48846;BME280;34665;51.886;5.436;2023-03-19T06:11:25;101030.38;;;16.38;100.00
48846;BME280;34665;51.886;5.436;2023-03-19T06:14:07;101037.66;;;16.37;100.00
48846;BME280;34665;51.886;5.436;2023-03-19T06:16:38;101041.59;;;16.53;100.00
48846;BME280;34665;51.886;5.436;2023-03-19T06:19:04;101043.84;;;16.68;100.00
48846;BME280;34665;51.886;5.436;2023-03-19T06:21:29;101040.09;;;16.69;100.00
48846;BME280;34665;51.886;5.436;2023-03-19T06:23:59;101037.16;;;16.28;100.00
48846;BME280;34665;51.886;5.436;2023-03-19T06:26:31;101037.75;;;16.61;100.00
48846;BME280;34665;51.886;5.436;2023-03-19T06:28:58;101053.28;;;16.47;100.00
48846;BME280;34665;51.886;5.436;2023-03-19T06:31:23;101055.84;;;16.72;100.00
48846;BME280;34665;51.886;5.436;2023-03-19T06:33:49;101056.00;;;16.47;100.00
48846;BME280;34665;51.886;5.436;2023-03-19T06:36:15;101049.56;;;16.60;100.00
48846;BME280;34665;51.886;5.436;2023-03-19T06:38:40;101054.38;;;16.15;100.00
48846;BME280;34665;51.886;5.436;2023-03-19T06:41:06;101056.31;;;16.39;100.00
48846;BME280;34665;51.886;5.436;2023-03-19T06:43:32;101059.38;;;16.73;100.00
48846;BME280;34665;51.886;5.436;2023-03-19T06:46:04;101068.38;;;17.09;100.00
48846;BME280;34665;51.886;5.436;2023-03-19T06:48:31;101065.81;;;16.84;100.00
48846;BME280;34665;51.886;5.436;2023-03-19T06:50:57;101071.59;;;16.45;100.00
48846;BME280;34665;51.886;5.436;2023-03-19T06:53:22;101075.25;;;16.51;100.00
48846;BME280;34665;51.886;5.436;2023-03-19T06:55:48;101070.88;;;16.38;100.00
48846;BME280;34665;51.886;5.436;2023-03-19T06:58:13;101080.97;;;15.93;100.00
48846;BME280;34665;51.886;5.436;2023-03-19T07:00:39;101076.63;;;16.11;100.00
48846;BME280;34665;51.886;5.436;2023-03-19T07:03:05;101083.41;;;16.32;100.00
48846;BME280;34665;51.886;5.436;2023-03-19T07:05:31;101083.34;;;16.20;100.00
48846;BME280;34665;51.886;5.436;2023-03-19T07:07:56;101093.13;;;16.33;100.00
48846;BME280;34665;51.886;5.436;2023-03-19T07:10:22;101089.72;;;16.26;100.00
48846;BME280;34665;51.886;5.436;2023-03-19T07:12:47;101083.88;;;16.10;100.00
48846;BME280;34665;51.886;5.436;2023-03-19T07:15:13;101092.19;;;16.58;100.00
48846;BME280;34665;51.886;5.436;2023-03-19T07:17:39;101093.13;;;16.33;100.00
48846;BME280;34665;51.886;5.436;2023-03-19T07:20:04;101092.50;;;16.49;100.00
48846;BME280;34665;51.886;5.436;2023-03-19T07:22:31;101100.31;;;15.90;100.00
48846;BME280;34665;51.886;5.436;2023-03-19T07:24:56;101102.78;;;15.91;100.00
48846;BME280;34665;51.886;5.436;2023-03-19T07:27:21;101108.88;;;16.36;100.00
48846;BME280;34665;51.886;5.436;2023-03-19T07:29:47;101103.94;;;16.33;100.00
48846;BME280;34665;51.886;5.436;2023-03-19T07:32:13;101111.13;;;16.70;100.00
48846;BME280;34665;51.886;5.436;2023-03-19T07:34:39;101106.84;;;16.92;100.00
48846;BME280;34665;51.886;5.436;2023-03-19T07:37:04;101121.66;;;16.90;100.00
48846;BME280;34665;51.886;5.436;2023-03-19T07:39:30;101123.84;;;17.12;100.00
48846;BME280;34665;51.886;5.436;2023-03-19T07:41:55;101121.78;;;16.95;100.00
48846;BME280;34665;51.886;5.436;2023-03-19T07:44:22;101121.44;;;16.61;100.00
48846;BME280;34665;51.886;5.436;2023-03-19T07:46:47;101125.63;;;17.42;100.00
48846;BME280;34665;51.886;5.436;2023-03-19T07:49:12;101135.16;;;17.56;100.00
48846;BME280;34665;51.886;5.436;2023-03-19T07:51:38;101134.06;;;17.10;100.00
48846;BME280;34665;51.886;5.436;2023-03-19T07:54:03;101138.91;;;16.89;100.00
48846;BME280;34665;51.886;5.436;2023-03-19T07:56:29;101136.72;;;16.67;100.00
48846;BME280;34665;51.886;5.436;2023-03-19T07:58:55;101137.25;;;16.88;100.00
48846;BME280;34665;51.886;5.436;2023-03-19T08:01:20;101144.78;;;16.86;100.00
48846;BME280;34665;51.886;5.436;2023-03-19T08:03:46;101142.13;;;16.67;100.00
48846;BME280;34665;51.886;5.436;2023-03-19T08:06:13;101149.19;;;16.99;100.00
48846;BME280;34665;51.886;5.436;2023-03-19T08:08:39;101149.25;;;17.23;100.00
48846;BME280;34665;51.886;5.436;2023-03-19T08:11:05;101164.19;;;17.49;100.00
48846;BME280;34665;51.886;5.436;2023-03-19T08:13:30;101155.38;;;17.42;100.00
48846;BME280;34665;51.886;5.436;2023-03-19T08:15:56;101165.91;;;17.19;100.00
48846;BME280;34665;51.886;5.436;2023-03-19T08:18:22;101163.25;;;17.79;100.00
48846;BME280;34665;51.886;5.436;2023-03-19T08:20:47;101165.50;;;17.58;100.00
48846;BME280;34665;51.886;5.436;2023-03-19T08:23:13;101173.06;;;17.14;100.00
48846;BME280;34665;51.886;5.436;2023-03-19T08:25:38;101167.47;;;16.97;100.00
48846;BME280;34665;51.886;5.436;2023-03-19T08:28:04;101173.53;;;17.11;100.00
48846;BME280;34665;51.886;5.436;2023-03-19T08:30:29;101181.72;;;17.58;100.00
48846;BME280;34665;51.886;5.436;2023-03-19T08:32:56;101183.00;;;17.91;100.00
48846;BME280;34665;51.886;5.436;2023-03-19T08:35:22;101171.81;;;17.64;100.00
48846;BME280;34665;51.886;5.436;2023-03-19T08:37:47;101172.44;;;17.54;100.00
48846;BME280;34665;51.886;5.436;2023-03-19T08:40:13;101181.13;;;17.80;100.00
48846;BME280;34665;51.886;5.436;2023-03-19T08:42:38;101184.19;;;17.84;100.00
48846;BME280;34665;51.886;5.436;2023-03-19T08:45:06;101177.69;;;17.97;100.00
48846;BME280;34665;51.886;5.436;2023-03-19T08:47:32;101179.25;;;18.86;100.00
48846;BME280;34665;51.886;5.436;2023-03-19T08:49:58;101177.44;;;19.55;100.00
48846;BME280;34665;51.886;5.436;2023-03-19T08:52:24;101199.47;;;18.67;100.00
48846;BME280;34665;51.886;5.436;2023-03-19T08:54:50;101197.06;;;18.41;100.00
48846;BME280;34665;51.886;5.436;2023-03-19T08:57:15;101197.63;;;18.02;100.00
48846;BME280;34665;51.886;5.436;2023-03-19T08:59:40;101194.75;;;17.49;100.00
48846;BME280;34665;51.886;5.436;2023-03-19T09:02:06;101202.44;;;18.12;100.00
48846;BME280;34665;51.886;5.436;2023-03-19T09:04:31;101196.63;;;17.97;100.00
48846;BME280;34665;51.886;5.436;2023-03-19T09:07:01;101195.47;;;17.69;100.00
48846;BME280;34665;51.886;5.436;2023-03-19T09:09:27;101211.13;;;18.14;100.00
48846;BME280;34665;51.886;5.436;2023-03-19T09:11:52;101211.28;;;18.60;100.00
48846;BME280;34665;51.886;5.436;2023-03-19T09:14:18;101213.81;;;17.67;100.00
48846;BME280;34665;51.886;5.436;2023-03-19T09:16:47;101217.31;;;17.43;100.00
48846;BME280;34665;51.886;5.436;2023-03-19T09:19:13;101227.50;;;17.29;100.00
48846;BME280;34665;51.886;5.436;2023-03-19T09:21:39;101235.41;;;16.82;100.00
48846;BME280;34665;51.886;5.436;2023-03-19T09:24:04;101236.56;;;17.35;100.00
48846;BME280;34665;51.886;5.436;2023-03-19T09:26:30;101236.75;;;16.91;100.00
48846;BME280;34665;51.886;5.436;2023-03-19T09:28:55;101236.25;;;16.63;100.00
48846;BME280;34665;51.886;5.436;2023-03-19T09:31:21;101237.03;;;16.83;100.00
48846;BME280;34665;51.886;5.436;2023-03-19T09:33:47;101239.81;;;17.25;100.00
48846;BME280;34665;51.886;5.436;2023-03-19T09:36:12;101234.72;;;17.05;100.00
48846;BME280;34665;51.886;5.436;2023-03-19T09:38:38;101239.41;;;17.52;100.00
48846;BME280;34665;51.886;5.436;2023-03-19T09:43:33;101245.47;;;17.78;100.00
48846;BME280;34665;51.886;5.436;2023-03-19T09:46:05;101247.94;;;18.39;100.00
48846;BME280;34665;51.886;5.436;2023-03-19T09:48:34;101262.81;;;18.13;100.00
48846;BME280;34665;51.886;5.436;2023-03-19T09:51:04;101271.22;;;17.92;100.00
48846;BME280;34665;51.886;5.436;2023-03-19T09:56:01;101272.13;;;18.70;100.00
48846;BME280;34665;51.886;5.436;2023-03-19T09:58:30;101270.56;;;18.33;100.00
48846;BME280;34665;51.886;5.436;2023-03-19T10:00:57;101271.06;;;18.71;100.00
48846;BME280;34665;51.886;5.436;2023-03-19T10:03:38;101272.47;;;18.85;100.00
48846;BME280;34665;51.886;5.436;2023-03-19T10:06:26;101272.56;;;18.38;100.00
48846;BME280;34665;51.886;5.436;2023-03-19T10:16:29;101270.03;;;20.10;100.00
48846;BME280;34665;51.886;5.436;2023-03-19T10:18:57;101287.69;;;20.13;100.00
48846;BME280;34665;51.886;5.436;2023-03-19T10:21:42;101276.41;;;18.95;100.00
48846;BME280;34665;51.886;5.436;2023-03-19T10:24:11;101271.25;;;18.93;100.00
48846;BME280;34665;51.886;5.436;2023-03-19T10:26:38;101273.25;;;18.86;100.00
48846;BME280;34665;51.886;5.436;2023-03-19T10:29:11;101272.66;;;19.71;100.00
48846;BME280;34665;51.886;5.436;2023-03-19T10:31:43;101281.59;;;19.54;100.00
48846;BME280;34665;51.886;5.436;2023-03-19T10:36:40;101286.16;;;20.00;100.00
48846;BME280;34665;51.886;5.436;2023-03-19T10:39:05;101295.91;;;19.84;100.00
48846;BME280;34665;51.886;5.436;2023-03-19T10:44:04;101292.25;;;18.74;100.00
48846;BME280;34665;51.886;5.436;2023-03-19T10:46:37;101298.34;;;18.93;100.00
48846;BME280;34665;51.886;5.436;2023-03-19T10:49:03;101299.56;;;18.85;100.00
48846;BME280;34665;51.886;5.436;2023-03-19T10:51:28;101293.53;;;17.76;100.00
48846;BME280;34665;51.886;5.436;2023-03-19T10:53:55;101305.63;;;19.04;100.00
48846;BME280;34665;51.886;5.436;2023-03-19T10:56:25;101308.69;;;19.08;100.00
48846;BME280;34665;51.886;5.436;2023-03-19T10:59:01;101319.31;;;19.39;100.00
48846;BME280;34665;51.886;5.436;2023-03-19T11:01:33;101307.31;;;18.82;100.00
48846;BME280;34665;51.886;5.436;2023-03-19T11:04:01;101321.28;;;19.14;100.00
48846;BME280;34665;51.886;5.436;2023-03-19T11:06:30;101314.44;;;19.12;100.00
48846;BME280;34665;51.886;5.436;2023-03-19T11:08:58;101322.56;;;19.12;100.00
48846;BME280;34665;51.886;5.436;2023-03-19T11:11:25;101326.25;;;19.34;100.00
48846;BME280;34665;51.886;5.436;2023-03-19T11:13:57;101325.00;;;19.25;100.00
48846;BME280;34665;51.886;5.436;2023-03-19T11:16:22;101332.97;;;19.15;100.00
48846;BME280;34665;51.886;5.436;2023-03-19T11:18:48;101335.41;;;19.74;100.00
48846;BME280;34665;51.886;5.436;2023-03-19T11:21:22;101334.34;;;20.27;100.00
48846;BME280;34665;51.886;5.436;2023-03-19T11:23:51;101339.06;;;19.68;100.00
48846;BME280;34665;51.886;5.436;2023-03-19T11:26:18;101333.53;;;19.92;100.00
48846;BME280;34665;51.886;5.436;2023-03-19T11:28:43;101334.75;;;19.84;100.00
48846;BME280;34665;51.886;5.436;2023-03-19T11:31:15;101337.19;;;19.86;100.00
48846;BME280;34665;51.886;5.436;2023-03-19T11:33:47;101343.41;;;19.98;100.00
48846;BME280;34665;51.886;5.436;2023-03-19T11:36:21;101336.75;;;19.43;100.00
48846;BME280;34665;51.886;5.436;2023-03-19T11:41:38;101333.13;;;20.00;100.00
48846;BME280;34665;51.886;5.436;2023-03-19T11:44:54;101336.50;;;21.31;100.00
48846;BME280;34665;51.886;5.436;2023-03-19T11:47:09;101347.13;;;21.32;98.33
48846;BME280;34665;51.886;5.436;2023-03-19T11:54:50;101339.56;;;22.81;86.64
48846;BME280;34665;51.886;5.436;2023-03-19T11:57:33;101347.75;;;23.65;82.88
48846;BME280;34665;51.886;5.436;2023-03-19T12:00:19;101346.38;;;23.62;80.86
48846;BME280;34665;51.886;5.436;2023-03-19T12:07:53;101340.59;;;24.31;75.18
48846;BME280;34665;51.886;5.436;2023-03-19T12:13:06;101349.28;;;24.65;72.66
48846;BME280;34665;51.886;5.436;2023-03-19T12:18:45;101349.94;;;26.75;63.88
48846;BME280;34665;51.886;5.436;2023-03-19T12:29:03;101344.06;;;24.73;65.69
48846;BME280;34665;51.886;5.436;2023-03-19T12:34:35;101346.31;;;23.31;70.38
48846;BME280;34665;51.886;5.436;2023-03-19T12:37:07;101341.75;;;24.20;69.91
48846;BME280;34665;51.886;5.436;2023-03-19T12:39:37;101337.44;;;26.63;64.29
48846;BME280;34665;51.886;5.436;2023-03-19T12:42:05;101340.16;;;27.31;60.53
48846;BME280;34665;51.886;5.436;2023-03-19T12:44:38;101347.25;;;26.94;59.05
48846;BME280;34665;51.886;5.436;2023-03-19T12:47:06;101344.84;;;25.40;61.75
48846;BME280;34665;51.886;5.436;2023-03-19T12:52:06;101359.97;;;27.47;57.69
48846;BME280;34665;51.886;5.436;2023-03-19T12:54:37;101356.44;;;26.01;58.57
48846;BME280;34665;51.886;5.436;2023-03-19T12:57:08;101362.25;;;26.53;58.91
48846;BME280;34665;51.886;5.436;2023-03-19T13:02:24;101370.97;;;27.28;57.93
48846;BME280;34665;51.886;5.436;2023-03-19T13:04:56;101362.91;;;25.35;59.91
48846;BME280;34665;51.886;5.436;2023-03-19T13:07:29;101382.91;;;28.56;55.09
48846;BME280;34665;51.886;5.436;2023-03-19T13:09:57;101378.72;;;27.79;53.92
48846;BME280;34665;51.886;5.436;2023-03-19T13:12:26;101376.75;;;27.46;54.14
48846;BME280;34665;51.886;5.436;2023-03-19T13:15:39;101374.75;;;26.40;56.27
48846;BME280;34665;51.886;5.436;2023-03-19T13:17:45;101371.88;;;25.91;56.10
48846;BME280;34665;51.886;5.436;2023-03-19T13:20:18;101369.38;;;26.30;57.61
48846;BME280;34665;51.886;5.436;2023-03-19T13:22:47;101380.63;;;27.64;54.95
48846;BME280;34665;51.886;5.436;2023-03-19T13:25:15;101381.72;;;27.25;53.28
48846;BME280;34665;51.886;5.436;2023-03-19T13:27:50;101374.22;;;26.62;55.62
48846;BME280;34665;51.886;5.436;2023-03-19T13:30:18;101377.41;;;29.72;51.23
48846;BME280;34665;51.886;5.436;2023-03-19T13:35:43;101374.66;;;29.35;48.69
48846;BME280;34665;51.886;5.436;2023-03-19T13:40:44;101388.41;;;29.95;47.86
48846;BME280;34665;51.886;5.436;2023-03-19T13:56:16;101415.75;;;32.62;42.21
48846;BME280;34665;51.886;5.436;2023-03-19T13:58:46;101408.75;;;32.08;42.03
48846;BME280;34665;51.886;5.436;2023-03-19T14:03:56;101402.00;;;33.26;39.68